LTCM Airport Information

Runway Information
Airport Frequencies
Airport Navaids
Type VOR-DME Name Sinop Frequency 114000 KHZ
Type NDB Name Sinop Frequency 465 KHZ
Airport Weather Information & NOTAM
ADDS - METARS form results

(2237 UTC 19 September 2020)
Data provider http://aviationweather.gov/metar/data/
 
Forecast for: LTCM (SINOP AIRPORT , TR)
Text: TAF LTCM 191640Z 1918/2003 02009KT 9999 SCT030 BKN100
Forecast period: 1800 UTC 19 September 2020 to 0300 UTC 20 September 2020
Forecast type: FROM: standard forecast or significant change
Winds: from the NNE (20 degrees) at 10 MPH (9 knots; 4.6 m/s)
Visibility: 6 or more miles (10+ km)
Ceiling: 10000 feet AGL
Clouds: scattered clouds at 3000 feet AGL
broken clouds at 10000 feet AGL
Weather: no significant weather forecast for this period
Text: TEMPO 1918/1921 -SHRA BKN028 BKN080
Forecast period: 1800 to 2100 UTC 19 September 2020
Forecast type: TEMPORARY: The following changes expected for less than half the time period
Visibility: missing
Ceiling: 2800 feet AGL
Clouds: broken clouds at 2800 feet AGL
broken clouds at 8000 feet AGL
Weather: -SHRA  (light rain showers)